createdAt,value
2024-01-15T00:01:33.417Z,4.40
2024-01-15T00:04:01.922Z,2.70
2024-01-15T00:06:29.824Z,2.73
2024-01-15T00:08:59.241Z,2.00
2024-01-15T00:11:26.921Z,2.57
2024-01-15T00:13:54.410Z,2.73
2024-01-15T00:16:21.764Z,2.30
2024-01-15T00:18:49.384Z,3.50
2024-01-15T00:21:16.997Z,2.70
2024-01-15T00:23:45.864Z,2.67
2024-01-15T00:26:14.058Z,2.73
2024-01-15T00:28:41.445Z,2.70
2024-01-15T00:31:08.996Z,2.67
2024-01-15T00:33:37.183Z,1.90
2024-01-15T00:36:05.185Z,4.43
2024-01-15T00:38:32.522Z,2.73
2024-01-15T00:40:59.848Z,5.53
2024-01-15T00:43:27.461Z,5.27
2024-01-15T00:45:54.982Z,3.93
2024-01-15T00:48:22.649Z,2.40
2024-01-15T00:50:50.366Z,1.50
2024-01-15T00:53:19.527Z,1.67
2024-01-15T00:55:47.273Z,1.87
2024-01-15T00:58:14.870Z,1.87
2024-01-15T01:00:42.597Z,1.40
2024-01-15T01:03:10.925Z,1.83
2024-01-15T01:05:39.074Z,2.43
2024-01-15T01:08:06.811Z,1.90
2024-01-15T01:10:34.225Z,1.40
2024-01-15T01:13:01.941Z,2.00
2024-01-15T01:15:29.376Z,1.10
2024-01-15T01:17:56.806Z,1.50
2024-01-15T01:20:24.650Z,1.43
2024-01-15T01:22:52.067Z,1.27
2024-01-15T01:25:21.609Z,1.20
2024-01-15T01:27:49.322Z,1.17
2024-01-15T01:30:16.993Z,1.20
2024-01-15T01:32:44.461Z,1.20
2024-01-15T01:35:12.163Z,1.70
2024-01-15T01:37:39.412Z,1.63
2024-01-15T01:40:07.887Z,1.63
2024-01-15T01:42:35.678Z,1.13
2024-01-15T01:45:03.148Z,1.10
2024-01-15T01:47:30.779Z,1.07
2024-01-15T01:49:58.295Z,1.77
2024-01-15T01:52:26.075Z,1.10
2024-01-15T01:54:54.154Z,1.27
2024-01-15T01:57:21.643Z,1.37
2024-01-15T01:59:49.468Z,1.00
2024-01-15T02:02:17.902Z,1.30
2024-01-15T02:04:45.816Z,1.20
2024-01-15T02:07:13.770Z,1.20
2024-01-15T02:09:41.193Z,1.10
2024-01-15T02:12:08.935Z,1.00
2024-01-15T02:14:36.563Z,1.67
2024-01-15T02:17:04.321Z,0.83
2024-01-15T02:19:31.869Z,1.77
2024-01-15T02:22:00.781Z,0.60
2024-01-15T02:24:28.514Z,1.63
2024-01-15T02:26:56.208Z,0.77
2024-01-15T02:29:23.763Z,0.80
2024-01-15T02:31:51.384Z,0.80
2024-01-15T02:34:18.913Z,0.80
2024-01-15T02:36:47.370Z,0.60
2024-01-15T02:39:14.905Z,0.57
2024-01-15T02:41:42.288Z,1.13
2024-01-15T02:44:09.772Z,0.90
2024-01-15T02:46:37.316Z,0.83
2024-01-15T02:49:04.803Z,1.07
2024-01-15T02:51:32.497Z,1.00
2024-01-15T02:53:59.946Z,1.10
2024-01-15T02:56:27.554Z,0.97
2024-01-15T02:58:55.128Z,0.90
2024-01-15T03:01:23.593Z,0.80
2024-01-15T03:03:51.098Z,1.10
2024-01-15T03:06:18.565Z,1.10
2024-01-15T03:08:46.112Z,1.00
2024-01-15T03:11:13.648Z,1.57
2024-01-15T03:13:41.146Z,1.10
2024-01-15T03:16:09.851Z,1.00
2024-01-15T03:18:37.725Z,1.03
2024-01-15T03:21:07.213Z,1.10
2024-01-15T03:23:34.704Z,1.53
2024-01-15T03:26:02.417Z,1.90
2024-01-15T03:28:31.603Z,1.30
2024-01-15T03:30:59.359Z,2.10
2024-01-15T03:33:27.194Z,1.67
2024-01-15T03:35:54.529Z,2.07
2024-01-15T03:38:21.948Z,1.63
2024-01-15T03:40:49.706Z,1.47
2024-01-15T03:43:17.509Z,1.20
2024-01-15T03:45:44.851Z,1.30
2024-01-15T03:48:12.662Z,1.47
2024-01-15T03:50:40.162Z,1.27
2024-01-15T03:53:07.583Z,1.20
2024-01-15T03:55:35.105Z,1.60
2024-01-15T03:58:02.415Z,1.47
2024-01-15T04:00:29.730Z,2.80
2024-01-15T04:02:57.314Z,2.30
2024-01-15T04:05:24.550Z,1.83
2024-01-15T04:07:52.164Z,1.10
2024-01-15T04:10:19.778Z,1.23
2024-01-15T04:12:47.616Z,1.37
2024-01-15T04:15:15.457Z,1.13
2024-01-15T04:17:42.789Z,1.30
2024-01-15T04:20:10.764Z,1.60
2024-01-15T04:22:38.248Z,1.73
2024-01-15T04:25:06.611Z,2.37
2024-01-15T04:27:34.831Z,2.10
2024-01-15T04:30:02.393Z,2.37
2024-01-15T04:32:30.064Z,1.97
2024-01-15T04:34:57.809Z,3.00
2024-01-15T04:37:25.473Z,3.50
2024-01-15T04:39:55.963Z,2.30
2024-01-15T04:42:23.947Z,2.37
2024-01-15T04:44:51.768Z,3.67
2024-01-15T04:47:19.154Z,2.13
2024-01-15T04:49:46.763Z,1.80
2024-01-15T04:52:14.567Z,1.60
2024-01-15T04:54:42.121Z,1.60
2024-01-15T04:57:10.937Z,1.23
2024-01-15T04:59:38.478Z,1.40
2024-01-15T05:02:05.976Z,1.20
2024-01-15T05:04:35.291Z,1.00
2024-01-15T05:07:03.208Z,0.90
2024-01-15T05:09:32.932Z,1.33
2024-01-15T05:12:01.036Z,1.30
2024-01-15T05:14:28.635Z,1.23
2024-01-15T05:16:56.057Z,1.30
2024-01-15T05:19:23.586Z,1.40
2024-01-15T05:21:51.415Z,2.20
2024-01-15T05:24:19.114Z,2.20
2024-01-15T05:26:46.703Z,1.67
2024-01-15T05:29:14.093Z,2.73
2024-01-15T05:31:41.702Z,2.37
2024-01-15T05:34:09.531Z,2.60
2024-01-15T05:36:36.943Z,2.80
2024-01-15T05:39:04.435Z,2.53
2024-01-15T05:41:31.791Z,1.50
2024-01-15T05:43:59.093Z,2.00
2024-01-15T05:46:26.725Z,1.93
2024-01-15T05:48:54.528Z,1.50
2024-01-15T05:51:22.117Z,1.70
2024-01-15T05:53:52.510Z,1.20
2024-01-15T05:56:20.294Z,2.07
2024-01-15T05:58:47.918Z,1.47
2024-01-15T06:01:15.592Z,1.10
2024-01-15T06:03:42.964Z,1.03
2024-01-15T06:06:11.317Z,1.50
2024-01-15T06:08:39.704Z,1.50
2024-01-15T06:11:09.334Z,2.10
2024-01-15T06:13:36.833Z,2.00
2024-01-15T06:16:06.688Z,1.60
2024-01-15T06:18:34.517Z,1.83
2024-01-15T06:21:02.086Z,2.43
2024-01-15T06:23:29.746Z,1.40
2024-01-15T06:25:57.179Z,1.67
2024-01-15T06:28:24.496Z,1.03
2024-01-15T06:30:51.945Z,1.30
2024-01-15T06:33:19.472Z,1.33
2024-01-15T06:35:47.082Z,1.30
2024-01-15T06:38:14.490Z,1.43
2024-01-15T06:40:47.541Z,1.00
2024-01-15T06:43:19.307Z,1.10
2024-01-15T06:45:47.027Z,1.97
2024-01-15T06:48:18.031Z,2.60
2024-01-15T06:50:45.609Z,2.78
2024-01-15T06:53:13.499Z,1.87
2024-01-15T06:55:40.979Z,1.63
2024-01-15T06:58:08.457Z,1.57
2024-01-15T07:00:36.050Z,1.47
2024-01-15T07:03:03.884Z,1.20
2024-01-15T07:05:32.693Z,0.90
2024-01-15T07:08:00.202Z,1.40
2024-01-15T07:10:27.517Z,1.43
2024-01-15T07:12:55.277Z,1.40
2024-01-15T07:15:22.955Z,1.67
2024-01-15T07:17:50.663Z,1.30
2024-01-15T07:20:20.489Z,2.23
2024-01-15T07:22:47.765Z,1.30
2024-01-15T07:25:15.131Z,1.27
2024-01-15T07:27:45.688Z,1.10
2024-01-15T07:30:14.816Z,1.30
2024-01-15T07:32:42.893Z,1.03
2024-01-15T07:35:11.949Z,1.93
2024-01-15T07:37:39.276Z,1.80
2024-01-15T07:40:10.429Z,1.60
2024-01-15T07:42:38.133Z,1.30
2024-01-15T07:45:06.177Z,1.20
2024-01-15T07:47:33.666Z,1.10
2024-01-15T07:50:05.476Z,1.10
2024-01-15T07:52:34.062Z,1.00
2024-01-15T07:55:01.845Z,1.20
2024-01-15T07:57:29.645Z,1.30
2024-01-15T07:59:57.161Z,2.10
2024-01-15T08:02:24.544Z,4.17
2024-01-15T08:04:52.080Z,8.83
2024-01-15T08:07:19.669Z,10.83
2024-01-15T08:09:49.380Z,15.53
2024-01-15T08:12:17.101Z,6.93
2024-01-15T08:14:44.634Z,4.30
2024-01-15T08:17:12.228Z,2.67
2024-01-15T08:19:42.533Z,2.40
2024-01-15T08:22:11.391Z,2.10
2024-01-15T08:24:39.042Z,1.83
2024-01-15T08:27:06.801Z,1.40
2024-01-15T08:29:35.443Z,1.83
2024-01-15T08:32:03.153Z,1.90
2024-01-15T08:34:32.220Z,1.40
2024-01-15T08:36:59.922Z,1.57
2024-01-15T08:39:27.425Z,1.40
2024-01-15T08:41:54.674Z,3.43
2024-01-15T08:44:22.190Z,1.33
2024-01-15T08:46:49.705Z,2.20
2024-01-15T08:49:17.211Z,2.03
2024-01-15T08:51:44.761Z,2.57
2024-01-15T08:54:12.220Z,2.67
2024-01-15T08:56:40.419Z,1.83
2024-01-15T08:59:08.913Z,1.50
2024-01-15T09:01:36.639Z,1.40
2024-01-15T09:04:04.751Z,1.57
2024-01-15T09:06:32.728Z,1.17
2024-01-15T09:09:00.476Z,1.47
2024-01-15T09:11:27.733Z,0.90
2024-01-15T09:13:55.157Z,0.90
2024-01-15T09:16:22.526Z,1.10
2024-01-15T09:18:50.093Z,1.43
2024-01-15T09:21:17.647Z,1.23
2024-01-15T09:23:45.141Z,1.50
2024-01-15T09:26:12.568Z,1.40
2024-01-15T09:28:40.189Z,1.67
2024-01-15T09:31:07.547Z,1.10
2024-01-15T09:33:35.030Z,1.67
2024-01-15T09:36:06.626Z,1.20
2024-01-15T09:38:34.167Z,0.83
2024-01-15T09:41:01.847Z,0.93
2024-01-15T09:43:29.649Z,1.30
2024-01-15T09:45:57.608Z,1.00
2024-01-15T09:48:25.089Z,1.30
2024-01-15T09:50:53.542Z,1.50
2024-01-15T09:53:22.121Z,1.30
2024-01-15T09:55:52.137Z,1.30
2024-01-15T09:58:20.701Z,1.30
2024-01-15T10:00:51.616Z,1.30
2024-01-15T10:03:19.336Z,1.50
2024-01-15T10:05:46.866Z,2.10
2024-01-15T10:08:15.291Z,1.83
2024-01-15T10:10:44.855Z,12.03
2024-01-15T10:13:13.038Z,6.97
2024-01-15T10:15:40.686Z,4.13
2024-01-15T10:18:08.549Z,5.80
2024-01-15T10:20:36.250Z,2.70
2024-01-15T10:23:04.345Z,5.80
2024-01-15T10:25:32.082Z,2.20
2024-01-15T10:28:06.510Z,1.50
2024-01-15T10:30:35.147Z,1.40
2024-01-15T10:33:04.834Z,1.80
2024-01-15T10:35:33.795Z,1.40
2024-01-15T10:38:01.767Z,1.47
2024-01-15T10:40:29.608Z,1.10
2024-01-15T10:42:57.479Z,1.57
2024-01-15T10:45:25.251Z,1.20
2024-01-15T10:47:53.097Z,1.37
2024-01-15T10:50:21.644Z,1.40
2024-01-15T10:52:49.438Z,1.20
2024-01-15T10:55:19.842Z,1.30
2024-01-15T10:57:50.852Z,2.33
2024-01-15T11:00:19.330Z,2.70
2024-01-15T11:02:47.196Z,1.60
2024-01-15T11:05:14.782Z,1.30
2024-01-15T11:07:45.192Z,1.53
2024-01-15T11:10:47.118Z,8.40
2024-01-15T11:13:21.842Z,2.10
2024-01-15T11:16:04.161Z,1.73
2024-01-15T11:18:39.085Z,1.30
2024-01-15T11:21:18.373Z,0.90
2024-01-15T11:23:51.246Z,0.90
2024-01-15T11:26:43.048Z,0.90
2024-01-15T11:29:30.658Z,0.80
2024-01-15T11:32:03.245Z,0.90
2024-01-15T11:34:53.915Z,0.73
2024-01-15T11:37:22.162Z,1.23
2024-01-15T11:39:49.887Z,1.03
2024-01-15T11:42:18.043Z,1.10
2024-01-15T11:44:45.851Z,0.73
2024-01-15T11:47:16.264Z,0.80
2024-01-15T11:50:14.262Z,0.87
2024-01-15T11:52:45.021Z,0.87
2024-01-15T11:55:16.055Z,0.70
2024-01-15T11:57:53.184Z,1.00
2024-01-15T12:00:21.206Z,1.00
2024-01-15T12:02:50.036Z,1.13
2024-01-15T12:05:20.619Z,1.17
2024-01-15T12:07:52.015Z,1.00
2024-01-15T12:10:24.295Z,1.03
2024-01-15T12:13:06.605Z,1.07
2024-01-15T12:15:34.749Z,1.17
2024-01-15T12:18:04.130Z,3.53
2024-01-15T12:20:32.879Z,1.87
2024-01-15T12:23:02.861Z,2.30
2024-01-15T12:25:33.324Z,1.87
2024-01-15T12:28:02.457Z,2.30
2024-01-15T12:30:33.212Z,1.60
2024-01-15T12:33:05.130Z,2.23
2024-01-15T12:35:33.217Z,1.90
2024-01-15T12:38:05.905Z,1.17
2024-01-15T12:40:36.196Z,1.30
2024-01-15T12:43:05.113Z,1.07
2024-01-15T12:45:32.970Z,1.20
2024-01-15T12:48:01.932Z,1.10
2024-01-15T12:50:29.739Z,1.17
2024-01-15T12:52:57.411Z,0.90
2024-01-15T12:55:25.034Z,2.13
2024-01-15T12:57:56.139Z,1.17
2024-01-15T13:00:24.418Z,0.80
2024-01-15T13:02:52.289Z,0.90
2024-01-15T13:05:21.893Z,4.27
2024-01-15T13:07:49.740Z,1.50
2024-01-15T13:10:17.441Z,2.23
2024-01-15T13:12:44.936Z,1.60
2024-01-15T13:15:14.532Z,1.50
2024-01-15T13:17:43.814Z,1.37
2024-01-15T13:20:13.537Z,1.20
2024-01-15T13:22:41.919Z,1.07
2024-01-15T13:25:10.331Z,1.73
2024-01-15T13:27:39.309Z,1.93
2024-01-15T13:30:09.632Z,1.03
2024-01-15T13:32:37.547Z,1.30
2024-01-15T13:35:08.177Z,1.20
2024-01-15T13:37:35.679Z,1.20
2024-01-15T13:40:05.003Z,1.43
2024-01-15T13:42:32.470Z,1.87
2024-01-15T13:44:59.959Z,1.50
2024-01-15T13:47:27.524Z,1.80
2024-01-15T13:49:54.900Z,1.37
2024-01-15T13:52:22.469Z,1.50
2024-01-15T13:54:51.012Z,1.30
2024-01-15T13:57:21.349Z,1.10
2024-01-15T13:59:50.678Z,1.40
2024-01-15T14:02:21.127Z,1.37
2024-01-15T14:04:50.867Z,1.70
2024-01-15T14:07:18.809Z,1.63
2024-01-15T14:09:46.320Z,1.70
2024-01-15T14:12:14.057Z,2.30
2024-01-15T14:14:42.692Z,1.80
2024-01-15T14:17:10.058Z,1.37
2024-01-15T14:19:37.816Z,2.40
2024-01-15T14:22:05.857Z,1.50
2024-01-15T14:24:33.276Z,1.30
2024-01-15T14:27:01.194Z,1.60
2024-01-15T14:29:28.566Z,2.63
2024-01-15T14:31:56.647Z,2.67
2024-01-15T14:34:25.477Z,2.23
2024-01-15T14:36:55.555Z,2.07
2024-01-15T14:39:27.347Z,1.90
2024-01-15T14:41:54.871Z,1.70
2024-01-15T14:44:22.816Z,2.23
2024-01-15T14:46:51.458Z,1.60
2024-01-15T14:49:19.273Z,2.00
2024-01-15T14:51:46.980Z,1.53
2024-01-15T14:54:14.717Z,1.50
2024-01-15T14:56:42.364Z,1.53
2024-01-15T14:59:11.250Z,1.43
2024-01-15T15:01:38.772Z,2.00
2024-01-15T15:04:06.350Z,1.40
2024-01-15T15:06:33.984Z,1.70
2024-01-15T15:09:02.103Z,1.90
2024-01-15T15:11:29.726Z,1.97
2024-01-15T15:13:57.158Z,1.33
2024-01-15T15:16:24.721Z,1.30
2024-01-15T15:18:52.607Z,1.40
2024-01-15T15:21:20.011Z,1.47
2024-01-15T15:23:48.694Z,1.50
2024-01-15T15:26:16.360Z,1.80
2024-01-15T15:28:43.871Z,1.53
2024-01-15T15:31:14.341Z,1.50
2024-01-15T15:33:42.051Z,1.40
2024-01-15T15:36:09.776Z,1.70
2024-01-15T15:38:37.529Z,2.30
2024-01-15T15:41:05.198Z,1.13
2024-01-15T15:43:32.856Z,1.23
2024-01-15T15:46:00.781Z,1.43
2024-01-15T15:48:28.890Z,1.57
2024-01-15T15:50:57.367Z,2.47
2024-01-15T15:53:26.184Z,1.60
2024-01-15T15:55:53.970Z,2.43
2024-01-15T15:58:21.856Z,1.27
2024-01-15T16:00:49.769Z,1.67
2024-01-15T16:03:17.601Z,1.90
2024-01-15T16:05:52.125Z,2.03
2024-01-15T16:08:21.284Z,1.87
2024-01-15T16:10:54.495Z,1.53
2024-01-15T16:13:22.087Z,1.50
2024-01-15T16:15:49.872Z,1.30
2024-01-15T16:23:20.213Z,1.53
2024-01-15T16:23:34.874Z,1.83
2024-01-15T16:24:12.373Z,1.93
2024-01-15T16:26:42.831Z,1.80
2024-01-15T16:29:11.017Z,1.47
2024-01-15T16:31:39.912Z,1.90
2024-01-15T16:34:09.743Z,1.70
2024-01-15T16:36:39.550Z,1.40
2024-01-15T16:39:07.362Z,2.90
2024-01-15T16:41:34.950Z,2.00
2024-01-15T16:44:02.811Z,1.67
2024-01-15T16:46:30.951Z,1.47
2024-01-15T16:48:58.526Z,1.67
2024-01-15T16:51:26.371Z,1.10
2024-01-15T16:53:53.739Z,1.40
2024-01-15T16:56:21.922Z,2.17
2024-01-15T16:58:49.505Z,2.20
2024-01-15T17:01:17.043Z,1.57
2024-01-15T17:03:45.188Z,1.60
2024-01-15T17:06:12.773Z,1.80
2024-01-15T17:08:40.596Z,1.00
2024-01-15T17:11:09.078Z,1.90
2024-01-15T17:13:36.483Z,2.90
2024-01-15T17:16:04.917Z,1.90
2024-01-15T17:18:32.526Z,2.10
2024-01-15T17:21:00.038Z,1.70
2024-01-15T17:23:27.794Z,2.10
2024-01-15T17:25:55.339Z,2.03
2024-01-15T17:28:24.515Z,2.43
2024-01-15T17:30:52.496Z,2.17
2024-01-15T17:33:20.591Z,2.00
2024-01-15T17:35:58.898Z,2.80
2024-01-15T17:38:26.300Z,2.23
2024-01-15T17:40:53.756Z,2.60
2024-01-15T17:43:22.054Z,2.67
2024-01-15T17:45:50.193Z,1.90
2024-01-15T17:48:18.046Z,3.13
2024-01-15T17:50:47.354Z,2.97
2024-01-15T17:53:14.934Z,1.90
2024-01-15T17:55:42.550Z,2.00
2024-01-15T17:58:09.975Z,2.30
2024-01-15T18:00:37.828Z,2.33
2024-01-15T18:03:05.738Z,3.30
2024-01-15T18:05:33.521Z,2.43
2024-01-15T18:08:01.308Z,2.10
2024-01-15T18:10:29.052Z,1.97
2024-01-15T18:12:56.684Z,1.93
2024-01-15T18:15:23.958Z,2.03
2024-01-15T18:17:51.426Z,1.80
2024-01-15T18:20:19.176Z,1.63
2024-01-15T18:22:51.115Z,1.67
2024-01-15T18:25:20.067Z,2.10
2024-01-15T18:27:47.741Z,2.83
2024-01-15T18:30:15.424Z,2.30
2024-01-15T18:32:43.085Z,1.97
2024-01-15T18:35:10.880Z,2.33
2024-01-15T18:37:38.619Z,2.70
2024-01-15T18:40:07.297Z,2.27
2024-01-15T18:42:34.724Z,2.63
2024-01-15T18:45:02.187Z,1.93
2024-01-15T18:47:29.577Z,2.80
2024-01-15T18:49:57.245Z,2.90
2024-01-15T18:52:24.637Z,2.90
2024-01-15T18:54:52.062Z,1.93
2024-01-15T18:57:19.454Z,2.90
2024-01-15T18:59:48.155Z,2.53
2024-01-15T19:02:15.727Z,2.47
2024-01-15T19:04:43.626Z,2.60
2024-01-15T19:07:11.301Z,2.60
2024-01-15T19:09:38.986Z,2.03
2024-01-15T19:12:07.837Z,2.27
2024-01-15T19:14:35.794Z,4.73
2024-01-15T19:17:05.984Z,4.80
2024-01-15T19:19:38.507Z,4.17
2024-01-15T19:22:06.271Z,3.53
2024-01-15T19:24:33.735Z,2.07
2024-01-15T19:27:01.107Z,2.07
2024-01-15T19:29:28.460Z,2.67
2024-01-15T19:31:55.897Z,2.70
2024-01-15T19:34:23.778Z,3.60
2024-01-15T19:36:51.328Z,2.43
2024-01-15T19:39:20.388Z,2.73
2024-01-15T19:41:47.664Z,1.97
2024-01-15T19:44:15.146Z,1.80
2024-01-15T19:46:42.454Z,2.03
2024-01-15T19:49:10.310Z,1.60
2024-01-15T19:51:37.845Z,1.53
2024-01-15T19:54:05.497Z,1.60
2024-01-15T19:56:35.485Z,1.73
2024-01-15T19:59:03.993Z,1.77
2024-01-15T20:01:34.042Z,1.93
2024-01-15T20:04:01.670Z,1.50
2024-01-15T20:06:29.904Z,2.37
2024-01-15T20:08:58.610Z,5.20
2024-01-15T20:11:26.230Z,5.53
2024-01-15T20:13:53.877Z,4.53
2024-01-15T20:16:25.639Z,3.57
2024-01-15T20:18:53.972Z,3.63
2024-01-15T20:21:21.422Z,2.30
2024-01-15T20:23:55.406Z,2.90
2024-01-15T20:26:26.782Z,3.60
2024-01-15T20:28:55.684Z,3.57
2024-01-15T20:31:23.206Z,3.17
2024-01-15T20:33:50.838Z,2.60
2024-01-15T20:36:18.946Z,2.67
2024-01-15T20:38:46.588Z,4.03
2024-01-15T20:41:14.240Z,3.13
2024-01-15T20:43:42.261Z,2.50
2024-01-15T20:46:09.636Z,1.80
2024-01-15T20:48:37.285Z,2.40
2024-01-15T20:51:05.191Z,4.70
2024-01-15T20:53:32.769Z,5.37
2024-01-15T20:56:00.373Z,3.37
2024-01-15T20:58:29.166Z,2.70
2024-01-15T21:00:57.833Z,1.87
2024-01-15T21:03:25.329Z,2.00
2024-01-15T21:05:53.162Z,2.23
2024-01-15T21:08:20.715Z,1.80
2024-01-15T21:10:48.336Z,2.53
2024-01-15T21:13:15.882Z,2.70
2024-01-15T21:15:43.627Z,3.00
2024-01-15T21:18:12.212Z,2.47
2024-01-15T21:20:39.719Z,2.13
2024-01-15T21:23:07.309Z,3.60
2024-01-15T21:25:34.925Z,3.00
2024-01-15T21:28:02.167Z,3.20
2024-01-15T21:30:29.919Z,5.13
2024-01-15T21:32:57.466Z,3.33
2024-01-15T21:35:24.870Z,2.40
2024-01-15T21:37:52.934Z,4.73
2024-01-15T21:40:20.237Z,3.70
2024-01-15T21:42:47.696Z,2.70
2024-01-15T21:45:15.119Z,3.00
2024-01-15T21:47:42.786Z,3.17
2024-01-15T21:50:10.705Z,3.57
2024-01-15T21:52:38.458Z,5.37
2024-01-15T21:55:08.880Z,6.73
2024-01-15T21:57:37.706Z,7.57
2024-01-15T22:00:07.981Z,14.20
2024-01-15T22:02:41.346Z,9.50
2024-01-15T22:05:09.912Z,15.27
2024-01-15T22:07:42.050Z,7.73
2024-01-15T22:10:11.140Z,5.37
2024-01-15T22:12:38.619Z,3.80
2024-01-15T22:15:06.537Z,3.57
2024-01-15T22:17:34.334Z,3.10
2024-01-15T22:20:01.758Z,3.00
2024-01-15T22:22:29.468Z,3.30
2024-01-15T22:24:56.779Z,3.60
2024-01-15T22:27:24.122Z,2.10
2024-01-15T22:29:52.726Z,2.17
2024-01-15T22:32:20.823Z,1.50
2024-01-15T22:34:50.399Z,1.53
2024-01-15T22:37:17.864Z,1.37
2024-01-15T22:39:45.480Z,1.90
2024-01-15T22:42:13.593Z,1.23
2024-01-15T22:44:41.026Z,1.20
2024-01-15T22:47:09.625Z,1.13
2024-01-15T22:49:36.998Z,1.10
2024-01-15T22:52:05.929Z,1.33
2024-01-15T22:54:33.601Z,1.17
2024-01-15T22:57:01.189Z,1.53
2024-01-15T22:59:28.572Z,2.10
2024-01-15T23:01:56.462Z,1.10
2024-01-15T23:04:23.805Z,1.20
2024-01-15T23:06:51.322Z,1.63
2024-01-15T23:09:19.787Z,1.20
2024-01-15T23:11:48.702Z,1.40
2024-01-15T23:14:16.514Z,1.53
2024-01-15T23:16:44.092Z,1.43
2024-01-15T23:19:11.751Z,1.70
2024-01-15T23:21:39.263Z,2.10
2024-01-15T23:24:07.444Z,1.13
2024-01-15T23:26:35.381Z,0.90
2024-01-15T23:29:03.197Z,1.47
2024-01-15T23:31:30.905Z,1.43
2024-01-15T23:33:58.281Z,1.40
2024-01-15T23:36:26.776Z,1.57
2024-01-15T23:38:54.146Z,1.70
2024-01-15T23:41:22.516Z,2.20
2024-01-15T23:43:50.838Z,1.97
2024-01-15T23:46:23.150Z,2.47
2024-01-15T23:48:51.427Z,2.07
2024-01-15T23:51:18.834Z,1.90
2024-01-15T23:53:46.559Z,1.30
2024-01-15T23:56:15.239Z,2.27
2024-01-15T23:58:42.871Z,2.07
